createdAt,value
2023-02-11T00:00:15.791Z,9.23
2023-02-11T00:02:42.741Z,9.24
2023-02-11T00:05:09.959Z,9.21
2023-02-11T00:07:36.787Z,9.23
2023-02-11T00:10:05.142Z,9.26
2023-02-11T00:12:31.971Z,9.26
2023-02-11T00:14:58.778Z,9.24
2023-02-11T00:17:25.683Z,9.24
2023-02-11T00:19:52.941Z,9.23
2023-02-11T00:22:19.985Z,9.24
2023-02-11T00:24:46.943Z,9.24
2023-02-11T00:27:13.750Z,9.23
2023-02-11T00:29:40.585Z,9.26
2023-02-11T00:32:09.104Z,9.27
2023-02-11T00:34:36.774Z,9.25
2023-02-11T00:37:04.236Z,9.24
2023-02-11T00:39:31.786Z,9.24
2023-02-11T00:41:58.701Z,9.23
2023-02-11T00:44:25.663Z,9.23
2023-02-11T00:46:52.597Z,9.24
2023-02-11T00:49:19.471Z,9.26
2023-02-11T00:51:46.441Z,9.26
2023-02-11T00:54:13.321Z,9.26
2023-02-11T00:56:40.259Z,9.26
2023-02-11T00:59:07.259Z,9.27
2023-02-11T01:01:34.875Z,9.28
2023-02-11T01:04:01.825Z,9.27
2023-02-11T01:06:28.722Z,9.27
2023-02-11T01:08:55.601Z,9.28
2023-02-11T01:11:23.722Z,9.26
2023-02-11T01:13:50.945Z,9.26
2023-02-11T01:16:19.005Z,9.28
2023-02-11T01:18:46.403Z,9.29
2023-02-11T01:21:13.314Z,9.29
2023-02-11T01:23:40.145Z,9.30
2023-02-11T01:26:07.036Z,9.30
2023-02-11T01:28:34.034Z,9.28
2023-02-11T01:31:02.288Z,9.30
2023-02-11T01:33:29.791Z,9.30
2023-02-11T01:35:59.516Z,9.32
2023-02-11T01:38:26.855Z,9.31
2023-02-11T01:41:02.876Z,9.33
2023-02-11T01:43:33.466Z,9.34
2023-02-11T01:46:18.284Z,9.30
2023-02-11T01:48:48.782Z,9.30
2023-02-11T01:51:41.453Z,9.33
2023-02-11T01:54:28.393Z,9.31
2023-02-11T01:57:16.087Z,9.32
2023-02-11T02:00:05.541Z,9.31
2023-02-11T02:03:07.314Z,9.27
2023-02-11T02:05:48.646Z,9.28
2023-02-11T02:08:46.722Z,9.28
2023-02-11T02:11:13.773Z,9.29
2023-02-11T02:13:40.629Z,9.32
2023-02-11T02:16:13.129Z,9.31
2023-02-11T02:18:40.057Z,9.28
2023-02-11T02:21:16.016Z,9.26
2023-02-11T02:24:01.134Z,9.26
2023-02-11T02:26:39.966Z,9.29
2023-02-11T02:29:26.145Z,9.26
2023-02-11T02:32:19.399Z,9.25
2023-02-11T02:34:54.752Z,9.27
2023-02-11T02:37:33.709Z,9.26
2023-02-11T02:40:04.533Z,9.29
2023-02-11T02:42:31.733Z,9.28
2023-02-11T02:44:58.633Z,9.30
2023-02-11T02:47:25.425Z,9.29
2023-02-11T02:49:52.271Z,9.28
2023-02-11T02:52:31.492Z,9.25
2023-02-11T02:55:17.868Z,9.30
2023-02-11T02:58:09.978Z,9.31
2023-02-11T03:01:00.549Z,9.30
2023-02-11T03:04:00.416Z,9.31
2023-02-11T03:06:45.209Z,9.29
2023-02-11T03:09:40.936Z,9.29
2023-02-11T03:12:08.796Z,9.27
2023-02-11T03:14:36.358Z,9.25
2023-02-11T03:17:05.543Z,9.26
2023-02-11T03:19:41.242Z,9.27
2023-02-11T03:22:17.828Z,9.27
2023-02-11T03:24:45.355Z,9.28
2023-02-11T03:27:28.173Z,9.28
2023-02-11T03:30:07.041Z,9.29
2023-02-11T03:32:39.721Z,9.23
2023-02-11T03:35:36.952Z,9.27
2023-02-11T03:38:14.601Z,9.27
2023-02-11T03:40:42.828Z,9.26
2023-02-11T03:43:17.373Z,9.21
2023-02-11T03:45:46.391Z,9.19
2023-02-11T03:48:16.855Z,9.23
2023-02-11T03:50:46.060Z,9.22
2023-02-11T03:53:13.677Z,9.21
2023-02-11T03:55:40.902Z,9.24
2023-02-11T03:58:07.901Z,9.20
2023-02-11T04:00:37.693Z,9.18
2023-02-11T04:03:05.029Z,9.18
2023-02-11T04:05:32.363Z,9.21
2023-02-11T04:07:59.298Z,9.19
2023-02-11T04:10:26.157Z,9.20
2023-02-11T04:12:52.984Z,9.21
2023-02-11T04:15:20.065Z,9.22
2023-02-11T04:17:46.901Z,9.21
2023-02-11T04:20:13.856Z,9.22
2023-02-11T04:22:40.745Z,9.24
2023-02-11T04:25:08.363Z,9.24
2023-02-11T04:27:35.612Z,9.24
2023-02-11T04:30:02.556Z,9.23
2023-02-11T04:32:29.432Z,9.24
2023-02-11T04:34:56.303Z,9.23
2023-02-11T04:37:23.175Z,9.23
2023-02-11T04:39:50.027Z,9.22
2023-02-11T04:42:16.900Z,9.20
2023-02-11T04:44:43.775Z,9.22
2023-02-11T04:47:12.997Z,9.18
2023-02-11T04:49:39.877Z,9.22
2023-02-11T04:52:06.730Z,9.21
2023-02-11T04:54:33.632Z,9.20
2023-02-11T04:57:00.929Z,9.18
2023-02-11T04:59:27.900Z,9.18
2023-02-11T05:01:54.692Z,9.17
2023-02-11T05:04:21.571Z,9.20
2023-02-11T05:06:48.530Z,9.21
2023-02-11T05:09:15.492Z,9.17
2023-02-11T05:11:42.426Z,9.19
2023-02-11T05:14:09.269Z,9.17
2023-02-11T05:16:36.315Z,9.15
2023-02-11T05:19:03.273Z,9.17
2023-02-11T05:21:30.180Z,9.12
2023-02-11T05:23:57.298Z,9.02
2023-02-11T05:26:24.197Z,9.06
2023-02-11T05:28:51.145Z,9.08
2023-02-11T05:31:18.665Z,9.09
2023-02-11T05:33:45.642Z,9.07
2023-02-11T05:36:13.616Z,9.08
2023-02-11T05:38:41.088Z,9.03
2023-02-11T05:41:07.918Z,9.02
2023-02-11T05:43:35.602Z,8.97
2023-02-11T05:46:04.071Z,8.96
2023-02-11T05:48:31.496Z,8.98
2023-02-11T05:50:58.335Z,8.94
2023-02-11T05:53:25.251Z,8.98
2023-02-11T05:55:52.390Z,8.91
2023-02-11T05:58:19.345Z,8.90
2023-02-11T06:00:46.201Z,8.94
2023-02-11T06:03:13.104Z,8.89
2023-02-11T06:05:40.033Z,8.85
2023-02-11T06:08:06.887Z,8.82
2023-02-11T06:10:33.770Z,8.84
2023-02-11T06:13:01.871Z,8.78
2023-02-11T06:15:29.137Z,8.77
2023-02-11T06:17:56.277Z,8.65
2023-02-11T06:20:23.235Z,8.71
2023-02-11T06:22:50.064Z,8.68
2023-02-11T06:25:17.130Z,8.63
2023-02-11T06:27:44.150Z,8.66
2023-02-11T06:30:11.930Z,8.67
2023-02-11T06:32:44.663Z,8.62
2023-02-11T06:35:13.406Z,8.60
2023-02-11T06:37:41.194Z,8.50
2023-02-11T06:40:08.390Z,8.50
2023-02-11T06:42:36.373Z,8.38
2023-02-11T06:45:06.213Z,8.36
2023-02-11T06:47:33.433Z,8.40
2023-02-11T06:50:00.243Z,8.35
2023-02-11T06:52:27.140Z,8.33
2023-02-11T06:54:54.057Z,8.26
2023-02-11T06:57:20.864Z,8.11
2023-02-11T06:59:47.714Z,8.13
2023-02-11T07:02:14.681Z,8.09
2023-02-11T07:04:41.608Z,8.13
2023-02-11T07:07:08.625Z,8.14
2023-02-11T07:09:35.488Z,8.14
2023-02-11T07:12:02.375Z,8.09
2023-02-11T07:14:29.220Z,8.05
2023-02-11T07:16:56.072Z,8.02
2023-02-11T07:19:22.968Z,8.05
2023-02-11T07:21:49.872Z,7.88
2023-02-11T07:24:16.794Z,7.90
2023-02-11T07:26:44.860Z,7.87
2023-02-11T07:29:11.853Z,7.84
2023-02-11T07:31:38.787Z,7.85
2023-02-11T07:34:05.736Z,7.82
2023-02-11T07:36:32.700Z,7.83
2023-02-11T07:39:00.497Z,7.76
2023-02-11T07:41:27.654Z,7.72
2023-02-11T07:43:54.897Z,7.89
2023-02-11T07:46:27.497Z,7.85
2023-02-11T07:48:55.341Z,7.81
2023-02-11T07:51:23.461Z,7.70
2023-02-11T07:53:50.881Z,7.71
2023-02-11T07:56:19.822Z,7.65
2023-02-11T07:58:47.122Z,7.74
2023-02-11T08:01:22.699Z,7.73
2023-02-11T08:03:49.793Z,7.73
2023-02-11T08:06:18.935Z,7.85
2023-02-11T08:08:45.940Z,7.86
2023-02-11T08:11:21.597Z,7.87
2023-02-11T08:13:48.816Z,7.75
2023-02-11T08:16:30.113Z,7.81
2023-02-11T08:18:58.972Z,7.82
2023-02-11T08:21:26.586Z,7.86
2023-02-11T08:23:53.841Z,7.93
2023-02-11T08:26:24.070Z,7.97
2023-02-11T08:28:52.309Z,8.00
2023-02-11T08:31:24.833Z,7.93
2023-02-11T08:33:52.226Z,7.97
2023-02-11T08:36:22.003Z,7.94
2023-02-11T08:38:49.453Z,7.98
2023-02-11T08:41:17.383Z,8.01
2023-02-11T08:43:45.037Z,8.04
2023-02-11T08:46:14.374Z,8.13
2023-02-11T08:48:41.736Z,8.18
2023-02-11T08:51:23.293Z,8.14
2023-02-11T08:53:51.045Z,8.24
2023-02-11T08:56:19.835Z,8.29
2023-02-11T08:58:47.388Z,8.37
2023-02-11T09:01:22.648Z,8.45
2023-02-11T09:03:49.804Z,8.54
2023-02-11T09:06:18.761Z,8.58
2023-02-11T09:08:49.581Z,8.65
2023-02-11T09:11:19.034Z,8.70
2023-02-11T09:13:46.527Z,8.76
2023-02-11T09:16:21.974Z,8.84
2023-02-11T09:18:49.747Z,8.88
2023-02-11T09:21:18.360Z,8.94
2023-02-11T09:23:47.938Z,8.99
2023-02-11T09:26:18.636Z,9.04
2023-02-11T09:28:45.614Z,9.13
2023-02-11T09:31:16.151Z,9.18
2023-02-11T09:33:48.131Z,9.24
2023-02-11T09:36:37.533Z,9.30
2023-02-11T09:39:06.507Z,9.35
2023-02-11T09:42:08.661Z,9.42
2023-02-11T09:44:37.038Z,9.48
2023-02-11T09:47:07.194Z,9.51
2023-02-11T09:49:40.642Z,9.62
2023-02-11T09:52:30.742Z,9.65
2023-02-11T09:55:00.982Z,9.68
2023-02-11T09:57:33.975Z,9.72
2023-02-11T10:00:02.330Z,9.79
2023-02-11T10:02:47.949Z,9.84
2023-02-11T10:05:24.024Z,9.90
2023-02-11T10:07:59.482Z,9.95
2023-02-11T10:10:39.935Z,10.02
2023-02-11T10:13:28.937Z,10.08
2023-02-11T10:16:04.742Z,10.14
2023-02-11T10:19:22.416Z,10.22
2023-02-11T10:22:10.645Z,10.25
2023-02-11T10:24:38.483Z,10.30
2023-02-11T10:27:16.106Z,10.31
2023-02-11T10:29:54.015Z,10.37
2023-02-11T10:32:31.945Z,10.44
2023-02-11T10:35:18.223Z,10.51
2023-02-11T10:37:45.758Z,10.53
2023-02-11T10:40:24.931Z,10.59
2023-02-11T10:42:55.778Z,10.62
2023-02-11T10:45:25.646Z,10.66
2023-02-11T10:47:52.835Z,10.72
2023-02-11T10:50:24.224Z,10.78
2023-02-11T10:52:51.506Z,10.79
2023-02-11T10:55:22.481Z,10.84
2023-02-11T10:58:02.389Z,10.92
2023-02-11T11:00:32.705Z,10.93
2023-02-11T11:03:00.867Z,10.96
2023-02-11T11:05:32.067Z,10.99
2023-02-11T11:08:02.098Z,11.04
2023-02-11T11:10:37.410Z,11.11
2023-02-11T11:13:04.271Z,11.09
2023-02-11T11:15:32.317Z,11.12
2023-02-11T11:18:23.530Z,11.15
2023-02-11T11:21:06.110Z,11.20
2023-02-11T11:23:35.540Z,11.23
2023-02-11T11:26:12.901Z,11.26
2023-02-11T11:28:43.933Z,11.28
2023-02-11T11:31:19.806Z,11.32
2023-02-11T11:33:47.846Z,11.37
2023-02-11T11:36:19.962Z,11.34
2023-02-11T11:38:54.151Z,11.34
2023-02-11T11:41:21.012Z,11.43
2023-02-11T11:44:17.311Z,11.44
2023-02-11T11:46:45.372Z,11.47
2023-02-11T11:49:29.042Z,11.54
2023-02-11T11:52:33.532Z,11.50
2023-02-11T11:55:09.838Z,11.46
2023-02-11T11:57:39.004Z,11.44
2023-02-11T12:00:07.125Z,11.45
2023-02-11T12:02:54.450Z,11.49
2023-02-11T12:05:28.316Z,11.52
2023-02-11T12:08:24.494Z,11.54
2023-02-11T12:11:03.450Z,11.67
2023-02-11T12:13:33.243Z,11.72
2023-02-11T12:16:10.543Z,11.78
2023-02-11T12:19:10.856Z,11.80
2023-02-11T12:21:49.311Z,11.82
2023-02-11T12:24:33.535Z,11.83
2023-02-11T12:27:05.014Z,11.88
2023-02-11T12:29:50.849Z,11.90
2023-02-11T12:32:41.072Z,11.97
2023-02-11T12:35:23.068Z,11.96
2023-02-11T12:37:59.235Z,11.96
2023-02-11T12:40:55.611Z,11.97
2023-02-11T12:43:25.952Z,11.98
2023-02-11T12:46:11.788Z,11.93
2023-02-11T12:48:50.833Z,12.03
2023-02-11T12:51:56.456Z,12.10
2023-02-11T12:54:33.563Z,12.13
2023-02-11T12:57:13.831Z,12.14
2023-02-11T13:00:14.573Z,12.16
2023-02-11T13:02:44.469Z,12.19
2023-02-11T13:05:34.284Z,12.22
2023-02-11T13:08:53.367Z,12.23
2023-02-11T13:11:33.029Z,12.22
2023-02-11T13:14:06.666Z,12.22
2023-02-11T13:16:44.231Z,12.21
2023-02-11T13:19:13.960Z,12.25
2023-02-11T13:21:47.077Z,12.26
2023-02-11T13:24:27.500Z,12.27
2023-02-11T13:26:54.293Z,12.25
2023-02-11T13:29:40.992Z,12.30
2023-02-11T13:32:13.697Z,12.31
2023-02-11T13:34:43.354Z,12.30
2023-02-11T13:37:39.429Z,12.28
2023-02-11T13:40:22.786Z,12.29
2023-02-11T13:42:55.725Z,12.32
2023-02-11T13:45:25.672Z,12.35
2023-02-11T13:47:58.003Z,12.36
2023-02-11T13:50:26.050Z,12.38
2023-02-11T13:53:04.165Z,12.39
2023-02-11T13:55:31.546Z,12.40
2023-02-11T13:58:17.792Z,12.43
2023-02-11T14:00:51.679Z,12.44
2023-02-11T14:03:45.115Z,12.49
2023-02-11T14:06:40.039Z,12.55
2023-02-11T14:09:09.961Z,12.56
2023-02-11T14:11:52.154Z,12.59
2023-02-11T14:14:27.008Z,12.60
2023-02-11T14:17:02.704Z,12.57
2023-02-11T14:19:33.774Z,12.57
2023-02-11T14:22:16.945Z,12.59
2023-02-11T14:24:57.231Z,12.58
2023-02-11T14:27:30.208Z,12.61
2023-02-11T14:30:09.400Z,12.63
2023-02-11T14:32:50.222Z,12.67
2023-02-11T14:35:23.137Z,12.63
2023-02-11T14:38:00.773Z,12.56
2023-02-11T14:40:51.760Z,12.54
2023-02-11T14:43:29.713Z,12.54
2023-02-11T14:45:57.317Z,12.58
2023-02-11T14:48:51.172Z,12.57
2023-02-11T14:51:27.095Z,12.52
2023-02-11T14:53:58.002Z,12.54
2023-02-11T14:56:31.331Z,12.55
2023-02-11T14:58:58.841Z,12.57
2023-02-11T15:01:32.866Z,12.57
2023-02-11T15:04:01.456Z,12.56
2023-02-11T15:06:38.199Z,12.52
2023-02-11T15:09:18.703Z,12.59
2023-02-11T15:11:48.090Z,12.54
2023-02-11T15:14:28.215Z,12.52
2023-02-11T15:17:00.269Z,12.51
2023-02-11T15:19:41.483Z,12.50
2023-02-11T15:22:24.166Z,12.48
2023-02-11T15:25:08.488Z,12.50
2023-02-11T15:27:47.728Z,12.50
2023-02-11T15:30:25.077Z,12.48
2023-02-11T15:33:00.395Z,12.51
2023-02-11T15:35:33.248Z,12.49
2023-02-11T15:38:00.519Z,12.44
2023-02-11T15:40:35.729Z,12.44
2023-02-11T15:43:03.993Z,12.40
2023-02-11T15:45:31.077Z,12.37
2023-02-11T15:48:06.289Z,12.32
2023-02-11T15:50:37.074Z,12.29
2023-02-11T15:53:33.995Z,12.25
2023-02-11T15:56:05.791Z,12.23
2023-02-11T15:58:40.077Z,12.22
2023-02-11T16:01:08.934Z,12.21
2023-02-11T16:03:36.477Z,12.19
2023-02-11T16:06:40.456Z,12.17
2023-02-11T16:09:12.966Z,12.15
2023-02-11T16:11:48.615Z,12.12
2023-02-11T16:14:34.930Z,12.10
2023-02-11T16:17:13.294Z,12.07
2023-02-11T16:19:45.191Z,12.04
2023-02-11T16:22:17.123Z,12.01
2023-02-11T16:24:47.251Z,11.99
2023-02-11T16:27:31.239Z,11.94
2023-02-11T16:29:58.889Z,11.92
2023-02-11T16:32:28.115Z,11.88
2023-02-11T16:34:58.101Z,11.84
2023-02-11T16:37:25.769Z,11.80
2023-02-11T16:39:56.907Z,11.77
2023-02-11T16:42:23.810Z,11.74
2023-02-11T16:44:50.690Z,11.71
2023-02-11T16:47:25.361Z,11.68
2023-02-11T16:49:52.481Z,11.63
2023-02-11T16:52:20.743Z,11.61
2023-02-11T16:54:47.977Z,11.58
2023-02-11T16:57:19.459Z,11.53
2023-02-11T16:59:46.361Z,11.50
2023-02-11T17:02:16.557Z,11.48
2023-02-11T17:04:43.942Z,11.44
2023-02-11T17:07:10.798Z,11.41
2023-02-11T17:09:37.658Z,11.38
2023-02-11T17:12:04.713Z,11.35
2023-02-11T17:14:31.552Z,11.33
2023-02-11T17:16:58.494Z,11.29
2023-02-11T17:19:25.343Z,11.25
2023-02-11T17:21:53.000Z,11.21
2023-02-11T17:24:21.095Z,11.18
2023-02-11T17:26:48.732Z,11.15
2023-02-11T17:29:18.155Z,11.11
2023-02-11T17:31:45.049Z,11.08
2023-02-11T17:34:12.534Z,11.03
2023-02-11T17:36:41.503Z,11.01
2023-02-11T17:39:08.716Z,10.94
2023-02-11T17:41:37.261Z,10.90
2023-02-11T17:44:04.456Z,10.85
2023-02-11T17:46:32.417Z,10.79
2023-02-11T17:48:59.783Z,10.78
2023-02-11T17:51:30.447Z,10.75
2023-02-11T17:53:59.168Z,10.71
2023-02-11T17:56:26.260Z,10.64
2023-02-11T17:58:53.369Z,10.57
2023-02-11T18:01:20.579Z,10.53
2023-02-11T18:03:47.690Z,10.49
2023-02-11T18:06:14.641Z,10.44
2023-02-11T18:08:43.211Z,10.42
2023-02-11T18:11:11.404Z,10.41
2023-02-11T18:13:38.200Z,10.42
2023-02-11T18:16:06.471Z,10.35
2023-02-11T18:18:33.294Z,10.31
2023-02-11T18:21:03.128Z,10.26
2023-02-11T18:23:30.574Z,10.22
2023-02-11T18:25:57.470Z,10.13
2023-02-11T18:28:24.526Z,10.06
2023-02-11T18:30:58.737Z,10.05
2023-02-11T18:33:26.616Z,9.98
2023-02-11T18:35:53.865Z,10.02
2023-02-11T18:38:20.827Z,9.97
2023-02-11T18:40:49.874Z,9.98
2023-02-11T18:43:17.453Z,9.95
2023-02-11T18:45:45.439Z,9.91
2023-02-11T18:48:12.756Z,9.87
2023-02-11T18:50:46.708Z,9.83
2023-02-11T18:53:15.863Z,9.68
2023-02-11T18:55:44.200Z,9.64
2023-02-11T18:58:11.153Z,9.64
2023-02-11T19:00:40.647Z,9.64
2023-02-11T19:03:07.544Z,9.59
2023-02-11T19:05:47.198Z,9.60
2023-02-11T19:08:14.374Z,9.58
2023-02-11T19:10:45.939Z,9.56
2023-02-11T19:13:14.007Z,9.51
2023-02-11T19:15:42.284Z,9.46
2023-02-11T19:18:09.554Z,9.45
2023-02-11T19:20:39.526Z,9.49
2023-02-11T19:23:06.426Z,9.43
2023-02-11T19:25:33.725Z,9.47
2023-02-11T19:28:00.965Z,9.41
2023-02-11T19:30:27.992Z,9.36
2023-02-11T19:32:57.319Z,9.37
2023-02-11T19:35:24.841Z,9.33
2023-02-11T19:37:51.851Z,9.30
2023-02-11T19:40:21.413Z,9.29
2023-02-11T19:42:48.416Z,9.27
2023-02-11T19:45:15.348Z,9.25
2023-02-11T19:47:42.272Z,9.23
2023-02-11T19:50:09.606Z,9.25
2023-02-11T19:52:40.655Z,9.25
2023-02-11T19:55:08.366Z,9.27
2023-02-11T19:57:36.753Z,9.29
2023-02-11T20:00:05.056Z,9.31
2023-02-11T20:02:32.119Z,9.25
2023-02-11T20:04:59.007Z,9.29
2023-02-11T20:07:25.809Z,9.22
2023-02-11T20:09:53.910Z,9.26
2023-02-11T20:12:20.799Z,9.25
2023-02-11T20:14:47.703Z,9.30
2023-02-11T20:17:14.568Z,9.23
2023-02-11T20:19:41.410Z,9.30
2023-02-11T20:22:08.554Z,9.30
2023-02-11T20:24:35.431Z,9.18
2023-02-11T20:27:02.260Z,9.23
2023-02-11T20:29:31.336Z,9.26
2023-02-11T20:31:58.386Z,9.22
2023-02-11T20:34:25.569Z,9.26
2023-02-11T20:36:52.994Z,9.27
2023-02-11T20:39:22.502Z,9.24
2023-02-11T20:41:50.651Z,9.27
2023-02-11T20:44:17.561Z,9.23
2023-02-11T20:46:48.437Z,9.17
2023-02-11T20:49:19.501Z,9.22
2023-02-11T20:51:46.899Z,9.27
2023-02-11T20:54:15.547Z,9.27
2023-02-11T20:56:42.473Z,9.27
2023-02-11T20:59:10.039Z,9.18
2023-02-11T21:01:48.558Z,9.21
2023-02-11T21:04:18.469Z,9.17
2023-02-11T21:06:47.661Z,9.13
2023-02-11T21:09:22.580Z,9.13
2023-02-11T21:11:51.970Z,9.11
2023-02-11T21:14:20.417Z,9.11
2023-02-11T21:16:48.001Z,9.07
2023-02-11T21:19:15.377Z,9.03
2023-02-11T21:21:42.568Z,9.07
2023-02-11T21:24:09.942Z,9.09
2023-02-11T21:26:37.779Z,9.11
2023-02-11T21:29:05.874Z,8.98
2023-02-11T21:31:34.215Z,8.98
2023-02-11T21:34:01.449Z,9.00
2023-02-11T21:36:29.588Z,9.00
2023-02-11T21:38:56.939Z,9.04
2023-02-11T21:41:25.068Z,9.06
2023-02-11T21:43:52.422Z,9.02
2023-02-11T21:46:19.880Z,8.98
2023-02-11T21:48:46.786Z,9.02
2023-02-11T21:51:16.584Z,9.05
2023-02-11T21:53:43.422Z,8.95
2023-02-11T21:56:14.665Z,8.88
2023-02-11T21:58:41.676Z,8.88
2023-02-11T22:01:11.926Z,8.91
2023-02-11T22:03:39.349Z,8.88
2023-02-11T22:06:08.376Z,8.84
2023-02-11T22:08:35.385Z,8.82
2023-02-11T22:11:04.547Z,8.77
2023-02-11T22:13:31.577Z,8.80
2023-02-11T22:16:00.271Z,8.89
2023-02-11T22:18:27.550Z,8.89
2023-02-11T22:21:00.810Z,8.90
2023-02-11T22:23:28.644Z,8.86
2023-02-11T22:25:56.113Z,8.92
2023-02-11T22:28:25.508Z,8.85
2023-02-11T22:30:54.447Z,8.82
2023-02-11T22:33:21.571Z,8.91
2023-02-11T22:35:48.429Z,8.86
2023-02-11T22:38:15.421Z,8.87
2023-02-11T22:40:43.711Z,8.76
2023-02-11T22:43:11.009Z,8.86
2023-02-11T22:45:37.897Z,8.85
2023-02-11T22:48:05.119Z,8.92
2023-02-11T22:50:32.011Z,8.88
2023-02-11T22:52:58.850Z,8.86
2023-02-11T22:55:25.900Z,8.90
2023-02-11T22:57:52.726Z,8.84
2023-02-11T23:00:24.527Z,8.86
2023-02-11T23:02:52.020Z,8.80
2023-02-11T23:05:18.978Z,8.83
2023-02-11T23:07:45.807Z,8.85
2023-02-11T23:10:12.684Z,8.78
2023-02-11T23:12:39.591Z,8.77
2023-02-11T23:15:06.705Z,8.72
2023-02-11T23:17:33.551Z,8.76
2023-02-11T23:20:00.561Z,8.75
2023-02-11T23:22:27.498Z,8.73
2023-02-11T23:24:54.337Z,8.77
2023-02-11T23:27:21.132Z,8.79
2023-02-11T23:29:47.958Z,8.78
2023-02-11T23:32:14.977Z,8.77
2023-02-11T23:34:41.854Z,8.70
2023-02-11T23:37:08.668Z,8.66
2023-02-11T23:39:35.510Z,8.65
2023-02-11T23:42:02.410Z,8.68
2023-02-11T23:44:29.530Z,8.66
2023-02-11T23:46:56.440Z,8.70
2023-02-11T23:49:23.385Z,8.66
2023-02-11T23:51:50.227Z,8.66
2023-02-11T23:54:17.196Z,8.64
2023-02-11T23:56:44.128Z,8.56
2023-02-11T23:59:11.818Z,8.58
